sensor_id;sensor_type;location;lat;lon;timestamp;P1;durP1;ratioP1;P2;durP2;ratioP2
75246;SDS011;63844;50.042;19.224;2024-02-26T00:01:09;66.90;;;33.50;;
75246;SDS011;63844;50.042;19.224;2024-02-26T00:05:18;64.40;;;30.20;;
75246;SDS011;63844;50.042;19.224;2024-02-26T00:06:55;67.20;;;32.20;;
75246;SDS011;63844;50.042;19.224;2024-02-26T00:08:32;75.50;;;35.20;;
75246;SDS011;63844;50.042;19.224;2024-02-26T00:10:08;67.80;;;31.90;;
75246;SDS011;63844;50.042;19.224;2024-02-26T00:11:45;79.40;;;35.60;;
75246;SDS011;63844;50.042;19.224;2024-02-26T00:13:22;84.50;;;36.20;;
75246;SDS011;63844;50.042;19.224;2024-02-26T00:14:58;78.30;;;34.50;;
75246;SDS011;63844;50.042;19.224;2024-02-26T00:16:34;72.60;;;33.40;;
75246;SDS011;63844;50.042;19.224;2024-02-26T00:18:11;69.20;;;34.20;;
75246;SDS011;63844;50.042;19.224;2024-02-26T00:19:47;67.20;;;32.70;;
75246;SDS011;63844;50.042;19.224;2024-02-26T00:21:24;76.50;;;36.70;;
75246;SDS011;63844;50.042;19.224;2024-02-26T00:23:00;71.30;;;33.50;;
75246;SDS011;63844;50.042;19.224;2024-02-26T00:24:37;70.90;;;35.50;;
75246;SDS011;63844;50.042;19.224;2024-02-26T00:26:13;70.60;;;33.90;;
75246;SDS011;63844;50.042;19.224;2024-02-26T00:27:51;70.60;;;33.30;;
75246;SDS011;63844;50.042;19.224;2024-02-26T00:29:27;76.80;;;37.30;;
75246;SDS011;63844;50.042;19.224;2024-02-26T00:31:04;78.30;;;37.40;;
75246;SDS011;63844;50.042;19.224;2024-02-26T00:32:41;78.60;;;36.30;;
75246;SDS011;63844;50.042;19.224;2024-02-26T00:34:18;78.90;;;36.20;;
75246;SDS011;63844;50.042;19.224;2024-02-26T00:35:54;76.10;;;35.80;;
75246;SDS011;63844;50.042;19.224;2024-02-26T00:37:31;71.50;;;33.30;;
75246;SDS011;63844;50.042;19.224;2024-02-26T00:39:07;74.30;;;35.30;;
75246;SDS011;63844;50.042;19.224;2024-02-26T00:40:44;70.20;;;33.20;;
75246;SDS011;63844;50.042;19.224;2024-02-26T00:42:20;80.90;;;37.40;;
75246;SDS011;63844;50.042;19.224;2024-02-26T00:43:57;80.20;;;36.10;;
75246;SDS011;63844;50.042;19.224;2024-02-26T00:45:33;80.00;;;37.50;;
75246;SDS011;63844;50.042;19.224;2024-02-26T00:47:10;71.60;;;34.40;;
75246;SDS011;63844;50.042;19.224;2024-02-26T00:48:47;74.10;;;34.70;;
75246;SDS011;63844;50.042;19.224;2024-02-26T00:50:23;73.50;;;36.50;;
75246;SDS011;63844;50.042;19.224;2024-02-26T00:52:00;74.00;;;34.50;;
75246;SDS011;63844;50.042;19.224;2024-02-26T00:53:36;66.60;;;32.50;;
75246;SDS011;63844;50.042;19.224;2024-02-26T00:55:13;67.30;;;32.70;;
75246;SDS011;63844;50.042;19.224;2024-02-26T00:56:49;74.70;;;31.80;;
75246;SDS011;63844;50.042;19.224;2024-02-26T00:58:26;71.60;;;32.20;;
75246;SDS011;63844;50.042;19.224;2024-02-26T01:00:02;74.10;;;34.20;;
75246;SDS011;63844;50.042;19.224;2024-02-26T01:01:39;69.60;;;34.20;;
75246;SDS011;63844;50.042;19.224;2024-02-26T01:03:17;70.30;;;33.90;;
75246;SDS011;63844;50.042;19.224;2024-02-26T01:04:53;73.90;;;33.10;;
75246;SDS011;63844;50.042;19.224;2024-02-26T01:06:30;64.60;;;30.80;;
75246;SDS011;63844;50.042;19.224;2024-02-26T01:08:06;71.10;;;34.60;;
75246;SDS011;63844;50.042;19.224;2024-02-26T01:09:43;76.60;;;35.10;;
75246;SDS011;63844;50.042;19.224;2024-02-26T01:11:19;71.40;;;32.70;;
75246;SDS011;63844;50.042;19.224;2024-02-26T01:12:56;72.60;;;34.10;;
75246;SDS011;63844;50.042;19.224;2024-02-26T01:14:32;70.10;;;31.20;;
75246;SDS011;63844;50.042;19.224;2024-02-26T01:16:09;63.10;;;29.10;;
75246;SDS011;63844;50.042;19.224;2024-02-26T01:17:46;73.70;;;31.60;;
75246;SDS011;63844;50.042;19.224;2024-02-26T01:19:23;69.00;;;33.30;;
75246;SDS011;63844;50.042;19.224;2024-02-26T01:20:59;77.60;;;34.40;;
75246;SDS011;63844;50.042;19.224;2024-02-26T01:22:36;72.80;;;35.40;;
75246;SDS011;63844;50.042;19.224;2024-02-26T01:24:12;74.10;;;36.10;;
75246;SDS011;63844;50.042;19.224;2024-02-26T01:25:49;72.10;;;32.60;;
75246;SDS011;63844;50.042;19.224;2024-02-26T01:27:26;70.60;;;32.10;;
75246;SDS011;63844;50.042;19.224;2024-02-26T01:29:03;67.80;;;31.00;;
75246;SDS011;63844;50.042;19.224;2024-02-26T01:30:40;70.90;;;31.60;;
75246;SDS011;63844;50.042;19.224;2024-02-26T01:32:16;65.50;;;31.70;;
75246;SDS011;63844;50.042;19.224;2024-02-26T01:33:53;77.60;;;36.00;;
75246;SDS011;63844;50.042;19.224;2024-02-26T01:35:29;75.20;;;34.20;;
75246;SDS011;63844;50.042;19.224;2024-02-26T01:37:06;75.60;;;34.30;;
75246;SDS011;63844;50.042;19.224;2024-02-26T01:38:42;76.10;;;35.50;;
75246;SDS011;63844;50.042;19.224;2024-02-26T01:40:19;75.70;;;36.00;;
75246;SDS011;63844;50.042;19.224;2024-02-26T01:41:56;66.00;;;32.90;;
75246;SDS011;63844;50.042;19.224;2024-02-26T01:43:32;67.10;;;30.90;;
75246;SDS011;63844;50.042;19.224;2024-02-26T01:45:12;67.80;;;32.60;;
75246;SDS011;63844;50.042;19.224;2024-02-26T01:46:52;66.20;;;30.80;;
75246;SDS011;63844;50.042;19.224;2024-02-26T01:48:29;61.30;;;28.60;;
75246;SDS011;63844;50.042;19.224;2024-02-26T01:50:06;67.60;;;32.40;;
75246;SDS011;63844;50.042;19.224;2024-02-26T01:51:43;66.10;;;33.90;;
75246;SDS011;63844;50.042;19.224;2024-02-26T01:53:20;60.80;;;30.50;;
75246;SDS011;63844;50.042;19.224;2024-02-26T01:54:58;66.00;;;28.50;;
75246;SDS011;63844;50.042;19.224;2024-02-26T01:56:37;66.30;;;32.00;;
75246;SDS011;63844;50.042;19.224;2024-02-26T01:58:15;67.30;;;31.00;;
75246;SDS011;63844;50.042;19.224;2024-02-26T01:59:52;69.70;;;32.40;;
75246;SDS011;63844;50.042;19.224;2024-02-26T02:01:29;73.90;;;33.10;;
75246;SDS011;63844;50.042;19.224;2024-02-26T02:03:07;63.70;;;29.80;;
75246;SDS011;63844;50.042;19.224;2024-02-26T02:04:45;66.00;;;30.60;;
75246;SDS011;63844;50.042;19.224;2024-02-26T02:06:21;64.70;;;30.90;;
75246;SDS011;63844;50.042;19.224;2024-02-26T02:07:58;70.20;;;32.90;;
75246;SDS011;63844;50.042;19.224;2024-02-26T02:09:35;65.10;;;31.10;;
75246;SDS011;63844;50.042;19.224;2024-02-26T02:11:12;66.80;;;32.00;;
75246;SDS011;63844;50.042;19.224;2024-02-26T02:12:51;69.30;;;32.50;;
75246;SDS011;63844;50.042;19.224;2024-02-26T02:14:28;67.20;;;30.50;;
75246;SDS011;63844;50.042;19.224;2024-02-26T02:16:04;67.70;;;30.90;;
75246;SDS011;63844;50.042;19.224;2024-02-26T02:17:41;68.50;;;32.20;;
75246;SDS011;63844;50.042;19.224;2024-02-26T02:19:18;67.90;;;30.50;;
75246;SDS011;63844;50.042;19.224;2024-02-26T02:20:54;72.70;;;31.00;;
75246;SDS011;63844;50.042;19.224;2024-02-26T02:22:32;66.30;;;32.80;;
75246;SDS011;63844;50.042;19.224;2024-02-26T02:24:09;69.80;;;32.20;;
75246;SDS011;63844;50.042;19.224;2024-02-26T02:25:46;81.30;;;36.40;;
75246;SDS011;63844;50.042;19.224;2024-02-26T02:27:22;76.10;;;36.90;;
75246;SDS011;63844;50.042;19.224;2024-02-26T02:28:59;79.30;;;34.60;;
75246;SDS011;63844;50.042;19.224;2024-02-26T02:30:37;79.90;;;35.80;;
75246;SDS011;63844;50.042;19.224;2024-02-26T02:32:15;67.10;;;31.50;;
75246;SDS011;63844;50.042;19.224;2024-02-26T02:33:53;64.70;;;30.20;;
75246;SDS011;63844;50.042;19.224;2024-02-26T02:35:29;66.20;;;30.80;;
75246;SDS011;63844;50.042;19.224;2024-02-26T02:37:06;60.40;;;28.50;;
75246;SDS011;63844;50.042;19.224;2024-02-26T02:38:49;72.00;;;31.40;;
75246;SDS011;63844;50.042;19.224;2024-02-26T02:40:26;67.70;;;32.00;;
75246;SDS011;63844;50.042;19.224;2024-02-26T02:42:03;69.30;;;30.20;;
75246;SDS011;63844;50.042;19.224;2024-02-26T02:43:40;64.60;;;30.80;;
75246;SDS011;63844;50.042;19.224;2024-02-26T02:45:16;67.00;;;30.50;;
75246;SDS011;63844;50.042;19.224;2024-02-26T02:46:52;70.30;;;31.80;;
75246;SDS011;63844;50.042;19.224;2024-02-26T02:48:29;69.40;;;31.30;;
75246;SDS011;63844;50.042;19.224;2024-02-26T02:50:06;72.60;;;33.00;;
75246;SDS011;63844;50.042;19.224;2024-02-26T02:51:42;69.50;;;30.00;;
75246;SDS011;63844;50.042;19.224;2024-02-26T02:53:19;63.60;;;29.60;;
75246;SDS011;63844;50.042;19.224;2024-02-26T02:54:55;68.50;;;31.80;;
75246;SDS011;63844;50.042;19.224;2024-02-26T02:56:32;60.90;;;28.00;;
75246;SDS011;63844;50.042;19.224;2024-02-26T02:58:08;54.40;;;27.50;;
75246;SDS011;63844;50.042;19.224;2024-02-26T02:59:45;75.10;;;31.70;;
75246;SDS011;63844;50.042;19.224;2024-02-26T03:01:22;70.80;;;32.00;;
75246;SDS011;63844;50.042;19.224;2024-02-26T03:02:59;72.40;;;31.30;;
75246;SDS011;63844;50.042;19.224;2024-02-26T03:04:36;65.20;;;31.50;;
75246;SDS011;63844;50.042;19.224;2024-02-26T03:06:12;63.20;;;30.00;;
75246;SDS011;63844;50.042;19.224;2024-02-26T03:07:48;67.10;;;32.10;;
75246;SDS011;63844;50.042;19.224;2024-02-26T03:09:25;70.30;;;30.80;;
75246;SDS011;63844;50.042;19.224;2024-02-26T03:11:02;67.10;;;30.70;;
75246;SDS011;63844;50.042;19.224;2024-02-26T03:12:38;66.30;;;30.40;;
75246;SDS011;63844;50.042;19.224;2024-02-26T03:14:15;64.70;;;30.20;;
75246;SDS011;63844;50.042;19.224;2024-02-26T03:15:51;66.10;;;31.10;;
75246;SDS011;63844;50.042;19.224;2024-02-26T03:17:28;64.70;;;29.50;;
75246;SDS011;63844;50.042;19.224;2024-02-26T03:19:05;62.90;;;29.40;;
75246;SDS011;63844;50.042;19.224;2024-02-26T03:20:42;67.20;;;28.80;;
75246;SDS011;63844;50.042;19.224;2024-02-26T03:22:18;62.90;;;29.00;;
75246;SDS011;63844;50.042;19.224;2024-02-26T03:23:56;60.50;;;27.50;;
75246;SDS011;63844;50.042;19.224;2024-02-26T03:25:33;68.40;;;30.70;;
75246;SDS011;63844;50.042;19.224;2024-02-26T03:27:10;63.20;;;28.70;;
75246;SDS011;63844;50.042;19.224;2024-02-26T03:28:46;61.50;;;27.80;;
75246;SDS011;63844;50.042;19.224;2024-02-26T03:30:23;62.60;;;29.40;;
75246;SDS011;63844;50.042;19.224;2024-02-26T03:32:00;64.20;;;28.50;;
75246;SDS011;63844;50.042;19.224;2024-02-26T03:33:36;65.60;;;30.50;;
75246;SDS011;63844;50.042;19.224;2024-02-26T03:35:12;67.90;;;30.50;;
75246;SDS011;63844;50.042;19.224;2024-02-26T03:36:49;66.50;;;31.00;;
75246;SDS011;63844;50.042;19.224;2024-02-26T03:38:26;60.40;;;27.80;;
75246;SDS011;63844;50.042;19.224;2024-02-26T03:40:02;61.40;;;27.20;;
75246;SDS011;63844;50.042;19.224;2024-02-26T03:41:39;57.80;;;26.40;;
75246;SDS011;63844;50.042;19.224;2024-02-26T03:43:16;64.80;;;28.50;;
75246;SDS011;63844;50.042;19.224;2024-02-26T03:44:53;64.10;;;30.30;;
75246;SDS011;63844;50.042;19.224;2024-02-26T03:46:29;66.50;;;29.40;;
75246;SDS011;63844;50.042;19.224;2024-02-26T03:48:06;64.00;;;30.20;;
75246;SDS011;63844;50.042;19.224;2024-02-26T03:49:43;62.20;;;28.70;;
75246;SDS011;63844;50.042;19.224;2024-02-26T03:51:19;60.60;;;28.20;;
75246;SDS011;63844;50.042;19.224;2024-02-26T03:52:56;60.30;;;27.40;;
75246;SDS011;63844;50.042;19.224;2024-02-26T03:54:33;58.80;;;28.30;;
75246;SDS011;63844;50.042;19.224;2024-02-26T03:56:11;53.20;;;25.40;;
75246;SDS011;63844;50.042;19.224;2024-02-26T03:57:49;54.80;;;25.10;;
75246;SDS011;63844;50.042;19.224;2024-02-26T03:59:25;59.70;;;29.80;;
75246;SDS011;63844;50.042;19.224;2024-02-26T04:01:02;64.30;;;27.20;;
75246;SDS011;63844;50.042;19.224;2024-02-26T04:02:39;53.00;;;24.80;;
75246;SDS011;63844;50.042;19.224;2024-02-26T04:04:15;50.20;;;24.30;;
75246;SDS011;63844;50.042;19.224;2024-02-26T04:05:52;55.50;;;25.10;;
75246;SDS011;63844;50.042;19.224;2024-02-26T04:07:28;62.00;;;26.60;;
75246;SDS011;63844;50.042;19.224;2024-02-26T04:09:05;56.70;;;24.90;;
75246;SDS011;63844;50.042;19.224;2024-02-26T04:10:41;53.50;;;24.70;;
75246;SDS011;63844;50.042;19.224;2024-02-26T04:12:18;53.00;;;23.40;;
75246;SDS011;63844;50.042;19.224;2024-02-26T04:13:54;49.70;;;22.20;;
75246;SDS011;63844;50.042;19.224;2024-02-26T04:15:31;56.90;;;23.10;;
75246;SDS011;63844;50.042;19.224;2024-02-26T04:17:08;56.20;;;26.20;;
75246;SDS011;63844;50.042;19.224;2024-02-26T04:18:45;53.60;;;23.80;;
75246;SDS011;63844;50.042;19.224;2024-02-26T04:20:22;48.90;;;24.00;;
75246;SDS011;63844;50.042;19.224;2024-02-26T04:21:59;55.50;;;24.50;;
75246;SDS011;63844;50.042;19.224;2024-02-26T04:23:35;50.00;;;24.10;;
75246;SDS011;63844;50.042;19.224;2024-02-26T04:25:12;54.00;;;25.20;;
75246;SDS011;63844;50.042;19.224;2024-02-26T04:26:49;48.00;;;23.20;;
75246;SDS011;63844;50.042;19.224;2024-02-26T04:28:26;51.10;;;25.00;;
75246;SDS011;63844;50.042;19.224;2024-02-26T04:30:05;51.10;;;23.90;;
75246;SDS011;63844;50.042;19.224;2024-02-26T04:31:43;45.30;;;21.90;;
75246;SDS011;63844;50.042;19.224;2024-02-26T04:33:20;45.20;;;22.00;;
75246;SDS011;63844;50.042;19.224;2024-02-26T04:34:56;49.60;;;22.40;;
75246;SDS011;63844;50.042;19.224;2024-02-26T04:36:33;46.20;;;22.60;;
75246;SDS011;63844;50.042;19.224;2024-02-26T04:38:10;48.40;;;22.10;;
75246;SDS011;63844;50.042;19.224;2024-02-26T04:39:46;45.80;;;21.10;;
75246;SDS011;63844;50.042;19.224;2024-02-26T04:41:23;44.90;;;20.80;;
75246;SDS011;63844;50.042;19.224;2024-02-26T04:42:59;43.40;;;21.50;;
75246;SDS011;63844;50.042;19.224;2024-02-26T04:44:36;46.10;;;22.50;;
75246;SDS011;63844;50.042;19.224;2024-02-26T04:46:12;46.50;;;22.10;;
75246;SDS011;63844;50.042;19.224;2024-02-26T04:47:49;47.80;;;22.40;;
75246;SDS011;63844;50.042;19.224;2024-02-26T04:49:25;48.60;;;22.30;;
75246;SDS011;63844;50.042;19.224;2024-02-26T04:51:02;44.90;;;22.20;;
75246;SDS011;63844;50.042;19.224;2024-02-26T04:52:39;52.50;;;24.60;;
75246;SDS011;63844;50.042;19.224;2024-02-26T04:54:15;47.30;;;22.90;;
75246;SDS011;63844;50.042;19.224;2024-02-26T04:55:52;49.00;;;23.20;;
75246;SDS011;63844;50.042;19.224;2024-02-26T04:57:28;47.40;;;22.10;;
75246;SDS011;63844;50.042;19.224;2024-02-26T04:59:05;51.50;;;24.20;;
75246;SDS011;63844;50.042;19.224;2024-02-26T05:00:41;43.60;;;21.90;;
75246;SDS011;63844;50.042;19.224;2024-02-26T05:02:18;47.50;;;23.20;;
75246;SDS011;63844;50.042;19.224;2024-02-26T05:03:54;45.80;;;22.40;;
75246;SDS011;63844;50.042;19.224;2024-02-26T05:05:31;50.70;;;22.90;;
75246;SDS011;63844;50.042;19.224;2024-02-26T05:07:07;52.20;;;24.20;;
75246;SDS011;63844;50.042;19.224;2024-02-26T05:08:44;56.30;;;26.50;;
75246;SDS011;63844;50.042;19.224;2024-02-26T05:10:22;45.10;;;22.00;;
75246;SDS011;63844;50.042;19.224;2024-02-26T05:11:58;49.70;;;23.90;;
75246;SDS011;63844;50.042;19.224;2024-02-26T05:13:35;54.20;;;25.40;;
75246;SDS011;63844;50.042;19.224;2024-02-26T05:15:11;46.40;;;21.90;;
75246;SDS011;63844;50.042;19.224;2024-02-26T05:16:54;44.30;;;21.60;;
75246;SDS011;63844;50.042;19.224;2024-02-26T05:18:30;43.20;;;21.60;;
75246;SDS011;63844;50.042;19.224;2024-02-26T05:20:07;49.20;;;22.30;;
75246;SDS011;63844;50.042;19.224;2024-02-26T05:21:44;46.60;;;20.80;;
75246;SDS011;63844;50.042;19.224;2024-02-26T05:23:20;54.80;;;24.70;;
75246;SDS011;63844;50.042;19.224;2024-02-26T05:24:57;49.40;;;24.10;;
75246;SDS011;63844;50.042;19.224;2024-02-26T05:26:33;50.60;;;23.30;;
75246;SDS011;63844;50.042;19.224;2024-02-26T05:28:10;48.40;;;23.40;;
75246;SDS011;63844;50.042;19.224;2024-02-26T05:29:46;47.90;;;21.00;;
75246;SDS011;63844;50.042;19.224;2024-02-26T05:31:22;44.40;;;21.50;;
75246;SDS011;63844;50.042;19.224;2024-02-26T05:32:59;51.50;;;24.40;;
75246;SDS011;63844;50.042;19.224;2024-02-26T05:34:35;50.70;;;24.00;;
75246;SDS011;63844;50.042;19.224;2024-02-26T05:36:17;48.60;;;22.60;;
75246;SDS011;63844;50.042;19.224;2024-02-26T05:37:55;52.60;;;25.80;;
75246;SDS011;63844;50.042;19.224;2024-02-26T05:39:32;54.20;;;25.60;;
75246;SDS011;63844;50.042;19.224;2024-02-26T05:41:08;51.00;;;24.60;;
75246;SDS011;63844;50.042;19.224;2024-02-26T05:42:45;50.70;;;22.70;;
75246;SDS011;63844;50.042;19.224;2024-02-26T05:44:22;52.40;;;24.20;;
75246;SDS011;63844;50.042;19.224;2024-02-26T05:45:59;54.30;;;25.10;;
75246;SDS011;63844;50.042;19.224;2024-02-26T05:47:35;53.80;;;25.10;;
75246;SDS011;63844;50.042;19.224;2024-02-26T05:49:12;48.00;;;23.30;;
75246;SDS011;63844;50.042;19.224;2024-02-26T05:50:48;53.00;;;24.60;;
75246;SDS011;63844;50.042;19.224;2024-02-26T05:52:25;54.40;;;23.00;;
75246;SDS011;63844;50.042;19.224;2024-02-26T05:54:01;53.10;;;26.30;;
75246;SDS011;63844;50.042;19.224;2024-02-26T05:55:38;53.40;;;25.20;;
75246;SDS011;63844;50.042;19.224;2024-02-26T05:57:14;58.00;;;27.20;;
75246;SDS011;63844;50.042;19.224;2024-02-26T05:58:51;53.40;;;26.90;;
75246;SDS011;63844;50.042;19.224;2024-02-26T06:00:28;60.70;;;26.70;;
75246;SDS011;63844;50.042;19.224;2024-02-26T06:02:05;57.60;;;28.10;;
75246;SDS011;63844;50.042;19.224;2024-02-26T06:03:41;56.90;;;27.40;;
75246;SDS011;63844;50.042;19.224;2024-02-26T06:05:18;59.20;;;27.20;;
75246;SDS011;63844;50.042;19.224;2024-02-26T06:06:55;55.50;;;26.10;;
75246;SDS011;63844;50.042;19.224;2024-02-26T06:08:31;67.60;;;30.90;;
75246;SDS011;63844;50.042;19.224;2024-02-26T06:10:08;62.20;;;27.70;;
75246;SDS011;63844;50.042;19.224;2024-02-26T06:11:44;54.00;;;26.70;;
75246;SDS011;63844;50.042;19.224;2024-02-26T06:13:21;49.00;;;22.80;;
75246;SDS011;63844;50.042;19.224;2024-02-26T06:14:57;49.30;;;25.00;;
75246;SDS011;63844;50.042;19.224;2024-02-26T06:16:36;51.60;;;23.30;;
75246;SDS011;63844;50.042;19.224;2024-02-26T06:18:13;54.70;;;25.30;;
75246;SDS011;63844;50.042;19.224;2024-02-26T06:19:49;52.70;;;24.50;;
75246;SDS011;63844;50.042;19.224;2024-02-26T06:21:26;50.50;;;24.20;;
75246;SDS011;63844;50.042;19.224;2024-02-26T06:23:02;48.40;;;22.50;;
75246;SDS011;63844;50.042;19.224;2024-02-26T06:24:39;50.50;;;24.20;;
75246;SDS011;63844;50.042;19.224;2024-02-26T06:26:15;49.30;;;23.90;;
75246;SDS011;63844;50.042;19.224;2024-02-26T06:27:52;53.60;;;24.10;;
75246;SDS011;63844;50.042;19.224;2024-02-26T06:29:28;48.20;;;23.70;;
75246;SDS011;63844;50.042;19.224;2024-02-26T06:31:05;49.70;;;24.50;;
75246;SDS011;63844;50.042;19.224;2024-02-26T06:32:41;50.00;;;23.20;;
75246;SDS011;63844;50.042;19.224;2024-02-26T06:34:18;54.00;;;23.40;;
75246;SDS011;63844;50.042;19.224;2024-02-26T06:35:54;47.50;;;23.10;;
75246;SDS011;63844;50.042;19.224;2024-02-26T06:37:31;52.80;;;24.40;;
75246;SDS011;63844;50.042;19.224;2024-02-26T06:39:07;50.70;;;23.20;;
75246;SDS011;63844;50.042;19.224;2024-02-26T06:40:44;47.50;;;21.30;;
75246;SDS011;63844;50.042;19.224;2024-02-26T06:42:22;44.40;;;21.80;;
75246;SDS011;63844;50.042;19.224;2024-02-26T06:43:58;44.60;;;20.10;;
75246;SDS011;63844;50.042;19.224;2024-02-26T06:45:35;49.50;;;21.00;;
75246;SDS011;63844;50.042;19.224;2024-02-26T06:47:11;44.00;;;21.60;;
75246;SDS011;63844;50.042;19.224;2024-02-26T06:48:48;43.40;;;20.20;;
75246;SDS011;63844;50.042;19.224;2024-02-26T06:50:25;40.10;;;19.20;;
75246;SDS011;63844;50.042;19.224;2024-02-26T06:52:02;45.00;;;20.00;;
75246;SDS011;63844;50.042;19.224;2024-02-26T06:53:38;52.60;;;22.20;;
75246;SDS011;63844;50.042;19.224;2024-02-26T06:55:15;48.50;;;21.60;;
75246;SDS011;63844;50.042;19.224;2024-02-26T06:56:51;48.30;;;21.30;;
75246;SDS011;63844;50.042;19.224;2024-02-26T06:58:28;41.10;;;18.40;;
75246;SDS011;63844;50.042;19.224;2024-02-26T07:00:04;41.10;;;18.50;;
75246;SDS011;63844;50.042;19.224;2024-02-26T07:01:41;45.20;;;18.90;;
75246;SDS011;63844;50.042;19.224;2024-02-26T07:03:18;37.80;;;17.80;;
75246;SDS011;63844;50.042;19.224;2024-02-26T07:04:54;37.10;;;17.50;;
75246;SDS011;63844;50.042;19.224;2024-02-26T07:06:32;39.60;;;17.80;;
75246;SDS011;63844;50.042;19.224;2024-02-26T07:08:08;27.70;;;13.30;;
75246;SDS011;63844;50.042;19.224;2024-02-26T07:09:45;31.10;;;12.70;;
75246;SDS011;63844;50.042;19.224;2024-02-26T07:11:21;29.70;;;10.70;;
75246;SDS011;63844;50.042;19.224;2024-02-26T07:12:58;23.60;;;10.90;;
75246;SDS011;63844;50.042;19.224;2024-02-26T07:14:35;23.20;;;9.30;;
75246;SDS011;63844;50.042;19.224;2024-02-26T07:16:13;22.50;;;9.60;;
75246;SDS011;63844;50.042;19.224;2024-02-26T07:17:50;23.20;;;10.70;;
75246;SDS011;63844;50.042;19.224;2024-02-26T07:19:27;24.40;;;11.70;;
75246;SDS011;63844;50.042;19.224;2024-02-26T07:21:03;25.20;;;12.40;;
75246;SDS011;63844;50.042;19.224;2024-02-26T07:22:40;22.50;;;10.90;;
75246;SDS011;63844;50.042;19.224;2024-02-26T07:24:18;24.70;;;12.00;;
75246;SDS011;63844;50.042;19.224;2024-02-26T07:25:55;24.40;;;10.50;;
75246;SDS011;63844;50.042;19.224;2024-02-26T07:27:31;24.70;;;11.40;;
75246;SDS011;63844;50.042;19.224;2024-02-26T07:29:08;27.80;;;12.20;;
75246;SDS011;63844;50.042;19.224;2024-02-26T07:30:44;23.00;;;10.90;;
75246;SDS011;63844;50.042;19.224;2024-02-26T07:32:21;20.90;;;10.60;;
75246;SDS011;63844;50.042;19.224;2024-02-26T07:33:58;22.90;;;10.30;;
75246;SDS011;63844;50.042;19.224;2024-02-26T07:35:35;21.00;;;9.50;;
75246;SDS011;63844;50.042;19.224;2024-02-26T07:37:12;23.10;;;9.50;;
75246;SDS011;63844;50.042;19.224;2024-02-26T07:38:49;23.10;;;10.10;;
75246;SDS011;63844;50.042;19.224;2024-02-26T07:40:26;21.70;;;9.30;;
75246;SDS011;63844;50.042;19.224;2024-02-26T07:42:03;23.20;;;10.80;;
75246;SDS011;63844;50.042;19.224;2024-02-26T07:43:40;21.40;;;10.10;;
75246;SDS011;63844;50.042;19.224;2024-02-26T07:45:17;21.60;;;10.20;;
75246;SDS011;63844;50.042;19.224;2024-02-26T07:46:55;20.30;;;10.00;;
75246;SDS011;63844;50.042;19.224;2024-02-26T07:48:32;21.70;;;9.30;;
75246;SDS011;63844;50.042;19.224;2024-02-26T07:50:09;22.50;;;11.00;;
75246;SDS011;63844;50.042;19.224;2024-02-26T07:51:48;18.20;;;9.10;;
75246;SDS011;63844;50.042;19.224;2024-02-26T07:53:24;18.00;;;8.90;;
75246;SDS011;63844;50.042;19.224;2024-02-26T07:55:00;20.40;;;8.90;;
75246;SDS011;63844;50.042;19.224;2024-02-26T07:56:37;17.90;;;9.20;;
75246;SDS011;63844;50.042;19.224;2024-02-26T07:58:14;16.80;;;8.90;;
75246;SDS011;63844;50.042;19.224;2024-02-26T07:59:50;17.80;;;8.30;;
75246;SDS011;63844;50.042;19.224;2024-02-26T08:01:27;18.40;;;8.70;;
75246;SDS011;63844;50.042;19.224;2024-02-26T08:03:03;17.50;;;8.30;;
75246;SDS011;63844;50.042;19.224;2024-02-26T08:04:40;17.30;;;8.60;;
75246;SDS011;63844;50.042;19.224;2024-02-26T08:06:16;18.60;;;9.00;;
75246;SDS011;63844;50.042;19.224;2024-02-26T08:07:53;19.80;;;8.90;;
75246;SDS011;63844;50.042;19.224;2024-02-26T08:09:31;17.50;;;9.40;;
75246;SDS011;63844;50.042;19.224;2024-02-26T08:11:07;16.60;;;8.70;;
75246;SDS011;63844;50.042;19.224;2024-02-26T08:12:45;16.30;;;8.80;;
75246;SDS011;63844;50.042;19.224;2024-02-26T08:14:21;18.80;;;8.80;;
75246;SDS011;63844;50.042;19.224;2024-02-26T08:15:58;15.80;;;8.10;;
75246;SDS011;63844;50.042;19.224;2024-02-26T08:17:35;16.20;;;8.30;;
75246;SDS011;63844;50.042;19.224;2024-02-26T08:19:12;16.10;;;8.60;;
75246;SDS011;63844;50.042;19.224;2024-02-26T08:20:51;17.30;;;8.90;;
75246;SDS011;63844;50.042;19.224;2024-02-26T08:22:27;15.80;;;8.80;;
75246;SDS011;63844;50.042;19.224;2024-02-26T08:24:04;18.20;;;9.10;;
75246;SDS011;63844;50.042;19.224;2024-02-26T08:25:41;17.80;;;8.40;;
75246;SDS011;63844;50.042;19.224;2024-02-26T08:27:18;15.80;;;8.00;;
75246;SDS011;63844;50.042;19.224;2024-02-26T08:28:54;16.90;;;7.70;;
75246;SDS011;63844;50.042;19.224;2024-02-26T08:30:32;16.70;;;8.20;;
75246;SDS011;63844;50.042;19.224;2024-02-26T08:32:08;18.00;;;8.50;;
75246;SDS011;63844;50.042;19.224;2024-02-26T08:33:45;15.80;;;8.40;;
75246;SDS011;63844;50.042;19.224;2024-02-26T08:35:21;17.10;;;7.70;;
75246;SDS011;63844;50.042;19.224;2024-02-26T08:36:58;14.40;;;7.80;;
75246;SDS011;63844;50.042;19.224;2024-02-26T08:38:34;17.40;;;8.60;;
75246;SDS011;63844;50.042;19.224;2024-02-26T08:40:11;15.40;;;6.70;;
75246;SDS011;63844;50.042;19.224;2024-02-26T08:41:48;17.20;;;7.40;;
75246;SDS011;63844;50.042;19.224;2024-02-26T08:43:25;10.90;;;6.10;;
75246;SDS011;63844;50.042;19.224;2024-02-26T08:45:01;13.60;;;6.10;;
75246;SDS011;63844;50.042;19.224;2024-02-26T08:46:38;11.80;;;6.90;;
75246;SDS011;63844;50.042;19.224;2024-02-26T08:48:15;14.20;;;6.20;;
75246;SDS011;63844;50.042;19.224;2024-02-26T08:49:51;12.50;;;6.70;;
75246;SDS011;63844;50.042;19.224;2024-02-26T08:51:28;20.00;;;7.70;;
75246;SDS011;63844;50.042;19.224;2024-02-26T08:53:04;11.70;;;5.40;;
75246;SDS011;63844;50.042;19.224;2024-02-26T08:54:42;11.60;;;5.70;;
75246;SDS011;63844;50.042;19.224;2024-02-26T08:56:18;11.60;;;4.50;;
75246;SDS011;63844;50.042;19.224;2024-02-26T08:57:55;11.70;;;5.40;;
75246;SDS011;63844;50.042;19.224;2024-02-26T08:59:31;10.00;;;5.10;;
75246;SDS011;63844;50.042;19.224;2024-02-26T09:01:08;8.90;;;4.90;;
75246;SDS011;63844;50.042;19.224;2024-02-26T09:02:44;9.40;;;4.70;;
75246;SDS011;63844;50.042;19.224;2024-02-26T09:04:21;11.30;;;4.80;;
75246;SDS011;63844;50.042;19.224;2024-02-26T09:05:57;12.40;;;5.90;;
75246;SDS011;63844;50.042;19.224;2024-02-26T09:07:34;11.90;;;6.40;;
75246;SDS011;63844;50.042;19.224;2024-02-26T09:09:10;11.30;;;6.30;;
75246;SDS011;63844;50.042;19.224;2024-02-26T09:10:47;8.90;;;4.60;;
75246;SDS011;63844;50.042;19.224;2024-02-26T09:12:23;12.50;;;5.20;;
75246;SDS011;63844;50.042;19.224;2024-02-26T09:14:00;7.70;;;4.50;;
75246;SDS011;63844;50.042;19.224;2024-02-26T09:15:36;8.90;;;5.10;;
75246;SDS011;63844;50.042;19.224;2024-02-26T09:17:13;9.60;;;5.10;;
75246;SDS011;63844;50.042;19.224;2024-02-26T09:18:49;8.40;;;4.80;;
75246;SDS011;63844;50.042;19.224;2024-02-26T09:20:26;7.50;;;4.20;;
75246;SDS011;63844;50.042;19.224;2024-02-26T09:22:02;8.40;;;5.00;;